地図

経路データ

SID SEASON NUMBER BASIN SUBBASIN NAME ISO_TIME NATURE LAT LON WMO_WIND WMO_PRES WMO_AGENCY TRACK_TYPE DIST2LAND LANDFALL IFLAG USA_AGENCY USA_ATCF_ID USA_LAT USA_LON USA_RECORD USA_STATUS USA_WIND USA_PRES USA_SSHS USA_R34_NE USA_R34_SE USA_R34_SW USA_R34_NW USA_R50_NE USA_R50_SE USA_R50_SW USA_R50_NW USA_R64_NE USA_R64_SE USA_R64_SW USA_R64_NW USA_POCI USA_ROCI USA_RMW USA_EYE TOKYO_LAT TOKYO_LON TOKYO_GRADE TOKYO_WIND TOKYO_PRES TOKYO_R50_DIR TOKYO_R50_LONG TOKYO_R50_SHORT TOKYO_R30_DIR TOKYO_R30_LONG TOKYO_R30_SHORT TOKYO_LAND CMA_LAT CMA_LON CMA_CAT CMA_WIND CMA_PRES HKO_LAT HKO_LON HKO_CAT HKO_WIND HKO_PRES NEWDELHI_LAT NEWDELHI_LON NEWDELHI_GRADE NEWDELHI_WIND NEWDELHI_PRES NEWDELHI_CI NEWDELHI_DP NEWDELHI_POCI REUNION_LAT REUNION_LON REUNION_TYPE REUNION_WIND REUNION_PRES REUNION_TNUM REUNION_CI REUNION_RMW REUNION_R34_NE REUNION_R34_SE REUNION_R34_SW REUNION_R34_NW REUNION_R50_NE REUNION_R50_SE REUNION_R50_SW REUNION_R50_NW REUNION_R64_NE REUNION_R64_SE REUNION_R64_SW REUNION_R64_NW BOM_LAT BOM_LON BOM_TYPE BOM_WIND BOM_PRES BOM_TNUM BOM_CI BOM_RMW BOM_R34_NE BOM_R34_SE BOM_R34_SW BOM_R34_NW BOM_R50_NE BOM_R50_SE BOM_R50_SW BOM_R50_NW BOM_R64_NE BOM_R64_SE BOM_R64_SW BOM_R64_NW BOM_ROCI BOM_POCI BOM_EYE BOM_POS_METHOD BOM_PRES_METHOD NADI_LAT NADI_LON NADI_CAT NADI_WIND NADI_PRES WELLINGTON_LAT WELLINGTON_LON WELLINGTON_WIND WELLINGTON_PRES DS824_LAT DS824_LON DS824_STAGE DS824_WIND DS824_PRES TD9636_LAT TD9636_LON TD9636_STAGE TD9636_WIND TD9636_PRES TD9635_LAT TD9635_LON TD9635_WIND TD9635_PRES TD9635_ROCI NEUMANN_LAT NEUMANN_LON NEUMANN_CLASS NEUMANN_WIND NEUMANN_PRES MLC_LAT MLC_LON MLC_CLASS MLC_WIND MLC_PRES USA_GUST BOM_GUST BOM_GUST_PER REUNION_GUST REUNION_GUST_PER USA_SEAHGT USA_SEARAD_NE USA_SEARAD_SE USA_SEARAD_SW USA_SEARAD_NW STORM_SPEED STORM_DIR
1976252N17093 1976 109 NI BB NOT_NAMED 1976-09-08 00:00:00 TS 17.2000 92.7000 main 183 183 O________OO___ jtwc_io IO071976 17.2000 92.7000 -1 17.2000 92.7000 TC 17.2000 92.7000 1 11 328
1976252N17093 1976 109 NI BB NOT_NAMED 1976-09-08 03:00:00 TS 17.6560 92.4007 main 199 192 P________PP___ IO071976 17.6651 92.4028 -1 17.6651 92.4028 TC 17.6378 92.3965 1 11 327
1976252N17093 1976 109 NI BB NOT_NAMED 1976-09-08 06:00:00 TS 18.0868 92.0979 main 196 195 O________OP___ jtwc_io IO071976 18.1000 92.1000 -1 18.1000 92.1000 TC 18.0604 92.0938 1 10 325
1976252N17093 1976 109 NI BB NOT_NAMED 1976-09-08 09:00:00 TS 18.4709 91.7930 main 207 206 P________PP___ IO071976 18.4800 91.7924 -1 18.4800 91.7924 TC 18.4527 91.7941 1 9 322
1976252N17093 1976 109 NI BB NOT_NAMED 1976-09-08 12:00:00 TS 18.8000 91.5000 main 206 198 O________OO___ jtwc_io IO071976 18.8000 91.5000 -1 18.8000 91.5000 TC 18.8000 91.5000 1 8 319
1976252N17093 1976 109 NI BB NOT_NAMED 1976-09-08 15:00:00 TS 19.0833 91.2288 main 206 199 P________PP___ IO071976 19.0800 91.2349 -1 19.0800 91.2349 TC 19.0899 91.2166 1 7 316
1976252N17093 1976 109 NI BB NOT_NAMED 1976-09-08 18:00:00 TS 19.3067 90.9866 main 210 210 O________OP___ jtwc_io IO071976 19.3000 91.0000 -1 19.3000 91.0000 TC 19.3200 90.9597 1 6 312
1976252N17093 1976 109 NI BB NOT_NAMED 1976-09-08 21:00:00 TS 19.4883 90.7577 main 214 214 P________PP___ IO071976 19.4875 90.7625 -1 19.4875 90.7625 TC 19.4900 90.7480 1 5 309
1976252N17093 1976 109 NI BB NOT_NAMED 1976-09-09 00:00:00 TS 19.6000 90.6000 main 224 224 O________OO___ jtwc_io IO071976 19.6000 90.6000 -1 19.6000 90.6000 TC 19.6000 90.6000 1 2 308
1976252N17093 1976 109 NI BB NOT_NAMED 1976-09-09 03:00:00 TS 19.6300 90.5637 main 224 224 P________PP___ IO071976 19.6225 90.5699 -1 19.6225 90.5699 TC 19.6451 90.5512 1 0 0
1976252N17093 1976 109 NI BB NOT_NAMED 1976-09-09 06:00:00 TS 19.6124 90.5874 main 224 224 O________OP___ jtwc_io IO071976 19.6000 90.6000 -1 19.6000 90.6000 TC 19.6373 90.5621 1 1 124
1976252N17093 1976 109 NI BB NOT_NAMED 1976-09-09 09:00:00 TS 19.5986 90.6073 main 224 224 P________PP___ IO071976 19.5925 90.6150 -1 19.5925 90.6150 TC 19.6108 90.5920 1 0 0
1976252N17093 1976 109 NI BB NOT_NAMED 1976-09-09 12:00:00 TS 19.6000 90.6000 main 224 224 O________OO___ jtwc_io IO071976 19.6000 90.6000 -1 19.6000 90.6000 TC 19.6000 90.6000 1 1 295
1976252N17093 1976 109 NI BB NOT_NAMED 1976-09-09 15:00:00 TS 19.6357 90.5250 main 233 227 P________PP___ IO071976 19.6350 90.5150 -1 19.6350 90.5150 TC 19.6371 90.5449 1 2 301
1976252N17093 1976 109 NI BB NOT_NAMED 1976-09-09 18:00:00 TS 19.6991 90.4199 main 235 223 O________OP___ jtwc_io IO071976 19.7000 90.4000 -1 19.7000 90.4000 TC 19.6974 90.4598 1 2 308
1976252N17093 1976 109 NI BB NOT_NAMED 1976-09-09 21:00:00 TS 19.7846 90.3249 main 223 212 P________PP___ IO071976 19.7850 90.3149 -1 19.7850 90.3149 TC 19.7840 90.3448 1 3 314
1976252N17093 1976 109 NI BB NOT_NAMED 1976-09-10 00:00:00 TS 19.9000 90.2000 main 212 200 O________OO___ jtwc_io IO071976 19.9000 90.2000 -1 19.9000 90.2000 TC 19.9000 90.2000 4 4 312
1976252N17093 1976 109 NI BB NOT_NAMED 1976-09-10 03:00:00 TS 20.0388 90.0223 main 200 172 P________PP___ IO071976 20.0350 90.0150 -1 20.0350 90.0150 TC 20.0462 90.0369 4 5 310
1976252N17093 1976 109 NI BB NOT_NAMED 1976-09-10 06:00:00 TS 20.2067 89.8150 main 172 143 O________OP___ jtwc_io IO071976 20.2000 89.8000 XX 40 -5 20.2000 89.8000 TC 40 20.2200 89.8450 4 5 314
1976252N17093 1976 109 NI BB NOT_NAMED 1976-09-10 09:00:00 TS 20.4029 89.6152 main 143 116 P________PP___ IO071976 20.4000 89.6075 XX 40 -5 20.4000 89.6075 TC 40 20.4087 89.6306 4 6 315
1976252N17093 1976 109 NI BB NOT_NAMED 1976-09-10 12:00:00 TS 20.6000 89.4000 main 116 101 O________OO___ jtwc_io IO071976 20.6000 89.4000 XX 40 -5 20.6000 89.4000 TC 40 20.6000 89.4000 4 6 310
1976252N17093 1976 109 NI BB NOT_NAMED 1976-09-10 15:00:00 TS 20.7542 89.1650 main 90 78 P________PP___ IO071976 20.7500 89.1574 XX 40 -5 20.7500 89.1574 TC 40 20.7626 89.1802 4 6 304
1976252N17093 1976 109 NI BB NOT_NAMED 1976-09-10 18:00:00 TS 20.9091 88.9148 main 78 59 O________OP___ jtwc_io IO071976 20.9000 88.9000 XX 40 -5 20.9000 88.9000 TC 40 20.9272 88.9443 4 6 306
1976252N17093 1976 109 NI BB NOT_NAMED 1976-09-10 21:00:00 TS 21.0910 88.6670 main 59 33 P________PP___ IO071976 21.0849 88.6574 XX 37 -5 21.0849 88.6574 TC 37 21.1032 88.6863 4 6 309
1976252N17093 1976 109 NI BB NOT_NAMED 1976-09-11 00:00:00 TS 21.3000 88.4000 main 33 11 O________OO___ jtwc_io IO071976 21.3000 88.4000 XX 35 -5 21.3000 88.4000 TC 35 21.3000 88.4000 4 7 311
1976252N17093 1976 109 NI BB NOT_NAMED 1976-09-11 03:00:00 TS 21.5389 88.1213 main 15 0 P________PP___ IO071976 21.5424 88.1224 XX 32 -5 21.5424 88.1224 TC 32 21.5318 88.1190 4 7 312
1976252N17093 1976 109 NI BB NOT_NAMED 1976-09-11 06:00:00 TS 21.7946 87.8014 main 0 0 O________OP___ jtwc_io IO071976 21.8000 87.8000 XX 30 -5 21.8000 87.8000 TC 30 21.7839 87.8043 4 8 309
1976252N17093 1976 109 NI BB NOT_NAMED 1976-09-11 09:00:00 TS 22.0478 87.4424 main 0 0 P________PP___ IO071976 22.0497 87.4448 XX 25 -5 22.0497 87.4448 TC 25 22.0440 87.4375 4 9 304
1976252N17093 1976 109 NI BB NOT_NAMED 1976-09-11 12:00:00 TS 22.3000 87.0000 main 0 0 O________OO___ jtwc_io IO071976 22.3000 87.0000 XX 20 -5 22.3000 87.0000 TC 20 22.3000 87.0000 4 11 298
1976252N17093 1976 109 NI BB NOT_NAMED 1976-09-11 15:00:00 TS 22.5439 86.4411 main 0 0 P________PP___ IO071976 22.5576 86.4300 XX 20 -5 22.5576 86.4300 TC 20 22.5166 86.4632 4 12 294
1976252N17093 1976 109 NI BB NOT_NAMED 1976-09-11 18:00:00 TS 22.7761 85.8197 main 0 0 O________OP___ jtwc_io IO071976 22.8000 85.8000 XX 20 -5 22.8000 85.8000 TC 20 22.7284 85.8591 4 12 291
1976252N17093 1976 109 NI BB NOT_NAMED 1976-09-11 21:00:00 TS 22.9735 85.2081 main 0 0 P________PP___ IO071976 22.9848 85.1994 XX -5 22.9848 85.1994 TC 22.9509 85.2254 4 12 291
1976252N17093 1976 109 NI BB NOT_NAMED 1976-09-12 00:00:00 TS 23.2000 84.6000 main 0 0 O________OO___ jtwc_io IO071976 23.2000 84.6000 -1 23.2000 84.6000 TC 23.2000 84.6000 2 13 296
1976252N17093 1976 109 NI BB NOT_NAMED 1976-09-12 03:00:00 TS 23.5331 83.9768 main 0 0 P________PP___ IO071976 23.5349 83.9852 -1 23.5349 83.9852 TC 23.5293 83.9601 2 13 302
1976252N17093 1976 109 NI BB NOT_NAMED 1976-09-12 06:00:00 TS 23.8936 83.3816 main 0 0 O________OP___ jtwc_io IO071976 23.9000 83.4000 -1 23.9000 83.4000 TC 23.8809 83.3449 2 13 304
1976252N17093 1976 109 NI BB NOT_NAMED 1976-09-12 09:00:00 TS 24.2307 82.8291 main 0 0 P________PP___ IO071976 24.2375 82.8401 -1 24.2375 82.8401 TC 24.2170 82.8070 2 11 304
1976252N17093 1976 109 NI BB NOT_NAMED 1976-09-12 12:00:00 TS 24.5000 82.4000 main 0 0 O________OO___ jtwc_io IO071976 24.5000 82.4000 -1 24.5000 82.4000 TC 24.5000 82.4000 2 8 303
1976252N17093 1976 109 NI BB NOT_NAMED 1976-09-12 15:00:00 TS 24.6419 82.1296 main 0 0 P________PP___ IO071976 24.6223 82.1172 -1 24.6223 82.1172 TC 24.6812 82.1544 2 4 304
1976252N17093 1976 109 NI BB NOT_NAMED 1976-09-12 18:00:00 TS 24.7362 82.0153 main 0 0 O________OP___ jtwc_io IO071976 24.7000 82.0000 -1 24.7000 82.0000 TC 24.8085 82.0459 2 3 335
1976252N17093 1976 109 NI BB NOT_NAMED 1976-09-12 21:00:00 TS 24.8689 82.0164 main 0 0 P________PP___ IO071976 24.8500 82.0049 -1 24.8500 82.0049 TC 24.9066 82.0394 2 3 16
1976252N17093 1976 109 NI BB NOT_NAMED 1976-09-13 00:00:00 TS 25.0000 82.1000 main 0 0 O________OO___ jtwc_io IO071976 25.0000 82.1000 -1 25.0000 82.1000 TC 25.0000 82.1000 2 3 31
1976252N17093 1976 109 NI BB NOT_NAMED 1976-09-13 03:00:00 TS 25.1178 82.1777 main 0 0 P________PP___ IO071976 25.1000 82.1851 -1 25.1000 82.1851 TC 25.1535 82.1630 2 3 37
1976252N17093 1976 109 NI BB NOT_NAMED 1976-09-13 06:00:00 TS 25.2342 82.2940 main 0 0 O________OP___ jtwc_io IO071976 25.2000 82.3000 -1 25.2000 82.3000 TC 25.3025 82.2819 2 4 42
1976252N17093 1976 109 NI BB NOT_NAMED 1976-09-13 09:00:00 TS 25.3851 82.4399 main 0 0 P________PP___ IO071976 25.3650 82.4424 -1 25.3650 82.4424 TC 25.4253 82.4349 2 4 46
1976252N17093 1976 109 NI BB NOT_NAMED 1976-09-13 12:00:00 TS 25.5000 82.6000 main 0 0 O________OO___ jtwc_io IO071976 25.5000 82.6000 -1 25.5000 82.6000 TC 25.5000 82.6000 2 3 62
1976252N17093 1976 109 NI BB NOT_NAMED 1976-09-13 15:00:00 TS 25.5318 82.7395 main 0 0 P________PP___ IO071976 25.5375 82.7500 -1 25.5375 82.7500 TC 25.5204 82.7183 2 3 91
1976252N17093 1976 109 NI BB NOT_NAMED 1976-09-13 18:00:00 TS 25.4965 82.8824 main 0 0 O________OP___ jtwc_io IO071976 25.5000 82.9000 -1 25.5000 82.9000 TC 25.4896 82.8472 2 3 113
1976252N17093 1976 109 NI BB NOT_NAMED 1976-09-13 21:00:00 TS 25.4246 83.0191 main 0 0 P________PP___ IO071976 25.4299 83.0274 -1 25.4299 83.0274 TC 25.4140 83.0025 2 3 124
1976252N17093 1976 109 NI BB NOT_NAMED 1976-09-14 00:00:00 TS 25.3000 83.2000 main 0 0 O________OO___ jtwc_io IO071976 25.3000 83.2000 -1 25.3000 83.2000 TC 25.3000 83.2000 1 5 127
1976252N17093 1976 109 NI BB NOT_NAMED 1976-09-14 03:00:00 TS 25.1134 83.4832 main 0 0 P________PP___ IO071976 25.1076 83.4776 -1 25.1076 83.4776 TC 25.1250 83.4945 1 7 125
1976252N17093 1976 109 NI BB NOT_NAMED 1976-09-14 06:00:00 TS 24.9069 83.8080 main 0 0 O________OP___ jtwc_io IO071976 24.9000 83.8000 -1 24.9000 83.8000 TC 24.9208 83.8240 1 7 124
1976252N17093 1976 109 NI BB NOT_NAMED 1976-09-14 09:00:00 TS 24.7188 84.1338 main 0 0 P________PP___ IO071976 24.7126 84.1301 -1 24.7126 84.1301 TC 24.7312 84.1413 1 6 120
1976252N17093 1976 109 NI BB NOT_NAMED 1976-09-14 12:00:00 TS 24.6000 84.4000 main 0 0 O________OO___ jtwc_io IO071976 24.6000 84.4000 -1 24.6000 84.4000 TC 24.6000 84.4000 1 4 105
1976252N17093 1976 109 NI BB NOT_NAMED 1976-09-14 15:00:00 TS 24.6190 84.5311 main 0 0 P________PP___ IO071976 24.6199 84.5374 -1 24.6199 84.5374 TC 24.6173 84.5186 1 2 61
1976252N17093 1976 109 NI BB NOT_NAMED 1976-09-14 18:00:00 TS 24.6973 84.5930 main 0 0 O________OP___ jtwc_io IO071976 24.7000 84.6000 -1 24.7000 84.6000 TC 24.6919 84.5791 1 2 30
1976252N17093 1976 109 NI BB NOT_NAMED 1976-09-14 21:00:00 TS 24.7768 84.6316 main 0 0 P________PP___ IO071976 24.7799 84.6349 -1 24.7799 84.6349 TC 24.7705 84.6250 1 1 44
1976252N17093 1976 109 NI BB NOT_NAMED 1976-09-15 00:00:00 TS 24.8000 84.7000 main 0 0 O________OO___ jtwc_io IO071976 24.8000 84.7000 -1 24.8000 84.7000 TC 24.8000 84.7000 1 2 112
1976252N17093 1976 109 NI BB NOT_NAMED 1976-09-15 03:00:00 TS 24.6852 84.8787 main 0 0 P________PP___ IO071976 24.6800 84.8776 -1 24.6800 84.8776 TC 24.6955 84.8808 1 5 129
1976252N17093 1976 109 NI BB NOT_NAMED 1976-09-15 06:00:00 TS 24.5126 85.0978 main 0 0 O________OP___ jtwc_io IO071976 24.5000 85.1000 -1 24.5000 85.1000 TC 24.5378 85.0933 1 5 131
1976252N17093 1976 109 NI BB NOT_NAMED 1976-09-15 09:00:00 TS 24.3487 85.3080 main 0 0 P________PP___ IO071976 24.3425 85.3075 -1 24.3425 85.3075 TC 24.3612 85.3090 1 5 131
1976252N17093 1976 109 NI BB NOT_NAMED 1976-09-15 12:00:00 TS 24.2000 85.5000 main 0 0 O________OO___ jtwc_io IO071976 24.2000 85.5000 -1 24.2000 85.5000 TC 24.2000 85.5000 1 4 129
1976252N17093 1976 109 NI BB NOT_NAMED 1976-09-15 15:00:00 TS 24.0870 85.6633 main 0 0 P________PP___ IO071976 24.0850 85.6725 -1 24.0850 85.6725 TC 24.0912 85.6448 1 3 127
1976252N17093 1976 109 NI BB NOT_NAMED 1976-09-15 18:00:00 TS 24.0016 85.7866 main 0 0 O________OP___ jtwc_io IO071976 24.0000 85.8000 -1 24.0000 85.8000 TC 24.0049 85.7598 1 2 130
1976252N17093 1976 109 NI BB NOT_NAMED 1976-09-15 21:00:00 TS 23.9370 85.8633 main 0 0 P________PP___ IO071976 23.9350 85.8725 -1 23.9350 85.8725 TC 23.9412 85.8449 1 1 133
1976252N17093 1976 109 NI BB NOT_NAMED 1976-09-16 00:00:00 TS 23.9000 85.9000 main 0 0 O________OO___ jtwc_io IO071976 23.9000 85.9000 -1 23.9000 85.9000 TC 23.9000 85.9000 1 1 136
1976252N17093 1976 109 NI BB NOT_NAMED 1976-09-16 03:00:00 TS 23.8878 85.9146 main 0 0 P________PP___ IO071976 23.8925 85.9075 -1 23.8925 85.9075 TC 23.8784 85.9287 1 0 0
1976252N17093 1976 109 NI BB NOT_NAMED 1976-09-16 06:00:00 TS 23.8925 85.9100 main 0 0 O________OP___ jtwc_io IO071976 23.9000 85.9000 -1 23.9000 85.9000 TC 23.8775 85.9299 1 0 0
1976252N17093 1976 109 NI BB NOT_NAMED 1976-09-16 09:00:00 TS 23.8959 85.9054 main 0 0 P________PP___ IO071976 23.9000 85.9000 -1 23.9000 85.9000 TC 23.8878 85.9162 1 0 0
1976252N17093 1976 109 NI BB NOT_NAMED 1976-09-16 12:00:00 TS 23.9000 85.9000 main 0 0 O________OO___ jtwc_io IO071976 23.9000 85.9000 -1 23.9000 85.9000 TC 23.9000 85.9000 1 0 0
1976252N17093 1976 109 NI BB NOT_NAMED 1976-09-16 15:00:00 TS 23.9000 85.9000 main 0 0 P________PP___ IO071976 23.9000 85.9000 -1 23.9000 85.9000 TC 23.9000 85.9000 1 0 0
1976252N17093 1976 109 NI BB NOT_NAMED 1976-09-16 18:00:00 TS 23.9000 85.9000 main 0 0 O________OP___ jtwc_io IO071976 23.9000 85.9000 -1 23.9000 85.9000 TC 23.9000 85.9000 1 0 0
1976252N17093 1976 109 NI BB NOT_NAMED 1976-09-16 21:00:00 TS 23.9000 85.9000 main 0 0 P________PP___ IO071976 23.9000 85.9000 -1 23.9000 85.9000 TC 23.9000 85.9000 1 0 0
1976252N17093 1976 109 NI BB NOT_NAMED 1976-09-17 00:00:00 TS 23.9000 85.9000 main 0 0 O________OO___ jtwc_io IO071976 23.9000 85.9000 -1 23.9000 85.9000 TC 23.9000 85.9000 1 0 0
1976252N17093 1976 109 NI BB NOT_NAMED 1976-09-17 03:00:00 TS 23.9027 85.8946 main 0 0 P________PP___ IO071976 23.9000 85.9000 -1 23.9000 85.9000 TC 23.9081 85.8837 1 0 0
1976252N17093 1976 109 NI BB NOT_NAMED 1976-09-17 06:00:00 TS 23.9050 85.8900 main 0 0 O________OP___ jtwc_io IO071976 23.9000 85.9000 -1 23.9000 85.9000 TC 23.9150 85.8699 1 0 0
1976252N17093 1976 109 NI BB NOT_NAMED 1976-09-17 09:00:00 TS 23.9098 85.8804 main 0 0 P________PP___ IO071976 23.9075 85.8850 -1 23.9075 85.8850 TC 23.9143 85.8712 1 0 0
1976252N17093 1976 109 NI BB NOT_NAMED 1976-09-17 12:00:00 TS 23.9000 85.9000 main 0 0 O________OO___ jtwc_io IO071976 23.9000 85.9000 -1 23.9000 85.9000 TC 23.9000 85.9000 1 1 118
1976252N17093 1976 109 NI BB NOT_NAMED 1976-09-17 15:00:00 TS 23.8571 85.9859 main 0 0 P________PP___ IO071976 23.8575 85.9850 -1 23.8575 85.9850 TC 23.8563 85.9876 1 2 119
1976252N17093 1976 109 NI BB NOT_NAMED 1976-09-17 18:00:00 TS 23.8000 86.1001 main 0 0 O________OP___ jtwc_io IO071976 23.8000 86.1000 -1 23.8000 86.1000 TC 23.8001 86.1002 1 2 119
1976252N17093 1976 109 NI BB NOT_NAMED 1976-09-17 21:00:00 TS 23.7430 86.2142 main 0 0 P________PP___ IO071976 23.7425 86.2150 -1 23.7425 86.2150 TC 23.7438 86.2126 1 2 119
1976252N17093 1976 109 NI BB NOT_NAMED 1976-09-18 00:00:00 TS 23.7000 86.3000 main 0 0 O________OO___ jtwc_io IO071976 23.7000 86.3000 -1 23.7000 86.3000 TC 23.7000 86.3000 1 1 118
1976252N17093 1976 109 NI BB NOT_NAMED 1976-09-18 03:00:00 TS 23.6902 86.3196 main 0 0 P________PP___ IO071976 23.6925 86.3150 -1 23.6925 86.3150 TC 23.6856 86.3287 1 0 0
1976252N17093 1976 109 NI BB NOT_NAMED 1976-09-18 06:00:00 TS 23.6950 86.3100 main 0 0 O________OP___ jtwc_io IO071976 23.7000 86.3000 -1 23.7000 86.3000 TC 23.6850 86.3300 1 0 0
1976252N17093 1976 109 NI BB NOT_NAMED 1976-09-18 09:00:00 TS 23.6973 86.3054 main 0 0 P________PP___ IO071976 23.7000 86.3000 -1 23.7000 86.3000 TC 23.6919 86.3162 1 0 0
1976252N17093 1976 109 NI BB NOT_NAMED 1976-09-18 12:00:00 TS 23.7000 86.3000 main 0 0 O________OO___ jtwc_io IO071976 23.7000 86.3000 -1 23.7000 86.3000 TC 23.7000 86.3000 1 0 0
1976252N17093 1976 109 NI BB NOT_NAMED 1976-09-18 15:00:00 TS 23.7000 86.3000 main 0 0 P________PP___ IO071976 23.7000 86.3000 -1 23.7000 86.3000 TC 23.7000 86.3000 1 0 0
1976252N17093 1976 109 NI BB NOT_NAMED 1976-09-18 18:00:00 TS 23.7000 86.3000 main 0 0 O________OP___ jtwc_io IO071976 23.7000 86.3000 -1 23.7000 86.3000 TC 23.7000 86.3000 1 0 0
1976252N17093 1976 109 NI BB NOT_NAMED 1976-09-18 21:00:00 TS 23.7000 86.3000 main 0 0 P________PP___ IO071976 23.7000 86.3000 -1 23.7000 86.3000 TC 23.7000 86.3000 1 0 0
1976252N17093 1976 109 NI BB NOT_NAMED 1976-09-19 00:00:00 TS 23.7000 86.3000 main 0 0 O________OO___ jtwc_io IO071976 23.7000 86.3000 -1 23.7000 86.3000 TC 23.7000 86.3000 1 0 0
1976252N17093 1976 109 NI BB NOT_NAMED 1976-09-19 03:00:00 TS 23.7013 86.2946 main 0 0 P________PP___ IO071976 23.7000 86.3000 -1 23.7000 86.3000 TC 23.7040 86.2837 1 0 0
1976252N17093 1976 109 NI BB NOT_NAMED 1976-09-19 06:00:00 TS 23.7025 86.2900 main 0 0 O________OP___ jtwc_io IO071976 23.7000 86.3000 -1 23.7000 86.3000 TC 23.7075 86.2700 1 0 0
1976252N17093 1976 109 NI BB NOT_NAMED 1976-09-19 09:00:00 TS 23.7024 86.2854 main 0 0 P________PP___ IO071976 23.7000 86.2925 -1 23.7000 86.2925 TC 23.7071 86.2712 1 0 0
1976252N17093 1976 109 NI BB NOT_NAMED 1976-09-19 12:00:00 TS 23.7000 86.3000 main 0 0 O________OO___ jtwc_io IO071976 23.7000 86.3000 -1 23.7000 86.3000 TC 23.7000 86.3000 1 1 93
1976252N17093 1976 109 NI BB NOT_NAMED 1976-09-19 15:00:00 TS 23.6996 86.3400 main 0 0 P________PP___ IO071976 23.7075 86.3275 -1 23.7075 86.3275 TC 23.6838 86.3650 1 1 97
1976252N17093 1976 109 NI BB NOT_NAMED 1976-09-19 18:00:00 TS 23.6867 86.4200 main 0 0 O________OP___ jtwc_io IO071976 23.7000 86.4000 -1 23.7000 86.4000 TC 23.6601 86.4601 1 2 104
1976252N17093 1976 109 NI BB NOT_NAMED 1976-09-19 21:00:00 TS 23.6505 86.5467 main 0 0 P________PP___ IO071976 23.6601 86.5325 -1 23.6601 86.5325 TC 23.6314 86.5751 1 3 109
1976252N17093 1976 109 NI BB NOT_NAMED 1976-09-20 00:00:00 TS 23.6000 86.7000 main 0 O________OO___ jtwc_io IO071976 23.6000 86.7000 -1 23.6000 86.7000 TC 23.6000 86.7000 6 3 109

IBTrACS Databaseについて

本データベースは、米国NOAAが公開する1842年以降の世界の熱帯低気圧のベストトラックデータアーカイブInternational Best Track Archive for Climate Stewardship (IBTrACS)を、ウェブで閲覧しやすい形式に変換したものです。

最終更新日:2021-10-21